Time;durP1;ratioP1;P1;durP2;ratioP2;P2;SDS_P1;SDS_P2;PMS_P1;PMS_P2;Temp;Humidity;BMP_temperature;BMP_pressure;BME280_temperature;BME280_humidity;BME280_pressure;Samples;Min_cycle;Max_cycle;Signal;HPM_P1;HPM_P2
2023/10/14 00:04:46;;;;;;;4.47;4.05;;;;;;;;;;10137289;28;20431;-70
2023/10/14 00:09:49;;;;;;;8.95;4.15;;;;;;;;;;10138272;28;20080;-70
2023/10/14 00:14:43;;;;;;;7.65;4.22;;;;;;;;;;10137485;28;20072;-70
2023/10/14 00:19:35;;;;;;;5.20;4.55;;;;;;;;;;10137197;28;20040;-68
2023/10/14 00:24:27;;;;;;;6.00;3.83;;;;;;;;;;10138854;28;20755;-71
2023/10/14 00:29:19;;;;;;;5.57;4.25;;;;;;;;;;10137687;28;20489;-70
2023/10/14 00:34:14;;;;;;;7.32;4.35;;;;;;;;;;10134869;28;20052;-71
2023/10/14 00:39:12;;;;;;;8.57;4.57;;;;;;;;;;10120080;28;20065;-71
2023/10/14 00:44:05;;;;;;;7.47;3.83;;;;;;;;;;10134934;28;20145;-70
2023/10/14 00:49:03;;;;;;;6.78;3.78;;;;;;;;;;10138197;28;20047;-71
2023/10/14 00:54:10;;;;;;;7.25;3.72;;;;;;;;;;10135539;28;20047;-70
2023/10/14 00:59:04;;;;;;;7.53;4.60;;;;;;;;;;10132158;28;20049;-71
2023/10/14 01:09:10;;;;;;;5.88;3.22;;;;;;;;;;10136782;28;20123;-70
2023/10/14 01:14:07;;;;;;;7.43;3.80;;;;;;;;;;10136769;28;20511;-71
2023/10/14 01:19:02;;;;;;;7.43;4.25;;;;;;;;;;10142232;28;20048;-71
2023/10/14 01:23:58;;;;;;;5.88;4.07;;;;;;;;;;10143995;28;20061;-70
2023/10/14 01:28:59;;;;;;;8.10;4.25;;;;;;;;;;10118857;28;20052;-71
2023/10/14 01:33:51;;;;;;;12.00;5.20;;;;;;;;;;10142469;28;20040;-71
2023/10/14 01:38:51;;;;;;;8.50;5.85;;;;;;;;;;10143101;28;20040;-70
2023/10/14 01:43:43;;;;;;;8.02;6.70;;;;;;;;;;10141948;28;20044;-70
2023/10/14 01:48:38;;;;;;;14.45;7.80;;;;;;;;;;10143417;28;20064;-70
2023/10/14 01:53:38;;;;;;;14.27;8.23;;;;;;;;;;10143000;28;20382;-70
2023/10/14 01:58:32;;;;;;;10.55;8.18;;;;;;;;;;10142434;28;20462;-70
2023/10/14 02:03:33;;;;;;;13.00;7.13;;;;;;;;;;10140390;28;20052;-70
2023/10/14 02:08:25;;;;;;;9.00;6.40;;;;;;;;;;10124088;28;20044;-70
2023/10/14 02:13:21;;;;;;;7.80;5.07;;;;;;;;;;10140662;28;20052;-70
2023/10/14 02:18:20;;;;;;;6.00;4.20;;;;;;;;;;10142689;28;20036;-69
2023/10/14 02:23:12;;;;;;;8.98;5.25;;;;;;;;;;10139617;28;20090;-70
2023/10/14 02:28:06;;;;;;;7.00;4.40;;;;;;;;;;10123586;28;20144;-70
2023/10/14 02:32:58;;;;;;;8.18;4.55;;;;;;;;;;10141388;28;20044;-71
2023/10/14 02:37:53;;;;;;;8.00;3.92;;;;;;;;;;10141073;28;20060;-70
2023/10/14 02:42:46;;;;;;;5.82;4.50;;;;;;;;;;10141709;28;20041;-69
2023/10/14 02:47:40;;;;;;;5.28;4.25;;;;;;;;;;10140211;28;20102;-67
2023/10/14 02:52:38;;;;;;;7.47;4.15;;;;;;;;;;10139398;28;20139;-70
2023/10/14 02:57:30;;;;;;;11.57;4.32;;;;;;;;;;10140874;28;20492;-71
2023/10/14 03:07:23;;;;;;;10.27;4.93;;;;;;;;;;10140055;28;20463;-69
2023/10/14 03:12:18;;;;;;;7.15;4.10;;;;;;;;;;10139038;28;20078;-69
2023/10/14 03:17:10;;;;;;;6.38;5.18;;;;;;;;;;10121226;28;20063;-70
2023/10/14 03:22:06;;;;;;;11.57;4.75;;;;;;;;;;10137760;28;20070;-69
2023/10/14 03:27:04;;;;;;;7.80;4.80;;;;;;;;;;10139037;28;20050;-70
2023/10/14 03:31:56;;;;;;;9.27;5.15;;;;;;;;;;10137343;28;20040;-70
2023/10/14 03:37:00;;;;;;;6.80;4.82;;;;;;;;;;10138117;28;20089;-68
2023/10/14 03:41:52;;;;;;;15.13;6.72;;;;;;;;;;10135627;28;20048;-70
2023/10/14 03:46:47;;;;;;;9.07;6.63;;;;;;;;;;10136933;28;20482;-69
2023/10/14 03:51:40;;;;;;;15.80;7.75;;;;;;;;;;10138331;28;20044;-70
2023/10/14 03:56:34;;;;;;;11.75;7.43;;;;;;;;;;10135196;28;20048;-71
2023/10/14 04:06:35;;;;;;;10.50;7.53;;;;;;;;;;10134534;28;20356;-71
2023/10/14 04:11:35;;;;;;;11.68;8.20;;;;;;;;;;10137789;28;20037;-71
2023/10/14 04:16:36;;;;;;;13.63;8.82;;;;;;;;;;10136011;28;20486;-71
2023/10/14 04:21:38;;;;;;;16.38;9.23;;;;;;;;;;10137350;28;20037;-70
2023/10/14 04:26:34;;;;;;;12.43;10.27;;;;;;;;;;10137156;28;20064;-71
2023/10/14 04:31:39;;;;;;;13.70;9.77;;;;;;;;;;10137607;28;20429;-70
2023/10/14 04:41:27;;;;;;;18.48;12.20;;;;;;;;;;10137526;28;20044;-69
2023/10/14 04:46:32;;;;;;;20.63;13.25;;;;;;;;;;10135949;28;20382;-70
2023/10/14 04:51:36;;;;;;;16.50;13.75;;;;;;;;;;10138018;28;20328;-71
2023/10/14 04:56:31;;;;;;;14.68;12.80;;;;;;;;;;10144625;28;20147;-71
2023/10/14 05:01:27;;;;;;;15.82;11.82;;;;;;;;;;10145199;28;20044;-71
2023/10/14 05:06:21;;;;;;;18.30;12.02;;;;;;;;;;10146888;28;20052;-71
2023/10/14 05:11:14;;;;;;;16.30;13.88;;;;;;;;;;10146854;28;20120;-68
2023/10/14 05:16:15;;;;;;;22.25;12.45;;;;;;;;;;10145637;28;20036;-70
2023/10/14 05:21:35;;;;;;;13.13;11.70;;;;;;;;;;10144449;28;20044;-70
2023/10/14 05:26:27;;;;;;;20.60;14.05;;;;;;;;;;10144759;28;20394;-70
2023/10/14 05:31:23;;;;;;;18.80;13.23;;;;;;;;;;10145995;28;20032;-70
2023/10/14 05:36:15;;;;;;;18.98;14.32;;;;;;;;;;10145166;28;20102;-69
2023/10/14 05:41:11;;;;;;;24.15;17.38;;;;;;;;;;10145062;28;20462;-71
2023/10/14 05:46:12;;;;;;;25.23;16.55;;;;;;;;;;10145648;28;20090;-71
2023/10/14 05:51:04;;;;;;;20.83;15.70;;;;;;;;;;10144804;28;20041;-71
2023/10/14 05:56:09;;;;;;;18.63;12.57;;;;;;;;;;10145704;28;20037;-71
2023/10/14 06:01:10;;;;;;;17.08;12.27;;;;;;;;;;10144676;28;20390;-71
2023/10/14 06:06:02;;;;;;;20.13;13.38;;;;;;;;;;10141494;28;20488;-70
2023/10/14 06:10:58;;;;;;;21.05;14.23;;;;;;;;;;10143970;28;20053;-71
2023/10/14 06:15:50;;;;;;;29.92;13.90;;;;;;;;;;10144503;28;20446;-63
2023/10/14 06:20:42;;;;;;;15.02;10.85;;;;;;;;;;10144772;28;20048;-59
2023/10/14 06:25:36;;;;;;;16.05;11.10;;;;;;;;;;10126318;28;20795;-64
2023/10/14 06:30:29;;;;;;;16.30;11.80;;;;;;;;;;10143547;28;20127;-60
2023/10/14 06:35:21;;;;;;;16.10;14.13;;;;;;;;;;10143348;28;20072;-63
2023/10/14 06:40:14;;;;;;;23.23;14.18;;;;;;;;;;10143765;28;20131;-64
2023/10/14 06:45:06;;;;;;;18.95;14.05;;;;;;;;;;10143470;28;20512;-65
2023/10/14 06:50:01;;;;;;;16.55;12.32;;;;;;;;;;10143770;28;20041;-63
2023/10/14 06:54:53;;;;;;;21.05;12.60;;;;;;;;;;10143319;28;20064;-64
2023/10/14 06:59:45;;;;;;;20.55;14.02;;;;;;;;;;10143560;28;20051;-62
2023/10/14 07:04:37;;;;;;;13.80;12.30;;;;;;;;;;10142674;28;20087;-65
2023/10/14 07:09:31;;;;;;;18.90;13.15;;;;;;;;;;10142703;28;20072;-63
2023/10/14 07:14:23;;;;;;;17.08;14.25;;;;;;;;;;10141563;28;20412;-64
2023/10/14 07:19:17;;;;;;;22.80;15.25;;;;;;;;;;10143279;28;20090;-62
2023/10/14 07:24:14;;;;;;;24.25;17.65;;;;;;;;;;10140237;28;20066;-62
2023/10/14 07:29:06;;;;;;;22.25;15.13;;;;;;;;;;10142558;28;20044;-63
2023/10/14 07:34:02;;;;;;;22.83;15.27;;;;;;;;;;10142800;28;20068;-63
2023/10/14 07:39:02;;;;;;;18.67;14.20;;;;;;;;;;10142009;28;20045;-63
2023/10/14 07:43:54;;;;;;;21.88;16.50;;;;;;;;;;10142229;28;20452;-63
2023/10/14 07:48:46;;;;;;;22.42;16.65;;;;;;;;;;10141098;28;20056;-63
2023/10/14 07:53:37;;;;;;;16.27;14.38;;;;;;;;;;10126371;28;20040;-65
2023/10/14 07:58:31;;;;;;;16.02;11.73;;;;;;;;;;10142475;28;20080;-64
2023/10/14 08:03:25;;;;;;;18.02;11.38;;;;;;;;;;10140139;28;20131;-64
2023/10/14 08:08:19;;;;;;;11.52;9.07;;;;;;;;;;10141425;28;20509;-64
2023/10/14 08:13:18;;;;;;;13.02;9.27;;;;;;;;;;10141358;28;20048;-63
2023/10/14 08:18:13;;;;;;;9.52;7.75;;;;;;;;;;10141221;28;20044;-62
2023/10/14 08:23:09;;;;;;;8.40;7.45;;;;;;;;;;10136335;28;20043;-63
2023/10/14 08:28:05;;;;;;;8.93;7.38;;;;;;;;;;10145602;28;20072;-64
2023/10/14 08:32:57;;;;;;;12.20;7.65;;;;;;;;;;10148066;28;20078;-63
2023/10/14 08:37:50;;;;;;;11.45;7.10;;;;;;;;;;10148570;28;20170;-63
2023/10/14 08:43:05;;;;;;;12.52;8.18;;;;;;;;;;10145605;28;20048;-64
2023/10/14 08:47:59;;;;;;;9.27;7.35;;;;;;;;;;10148661;28;20040;-62
2023/10/14 08:52:53;;;;;;;10.93;7.22;;;;;;;;;;10147828;28;20557;-64
2023/10/14 08:57:47;;;;;;;11.23;6.78;;;;;;;;;;10148397;28;20134;-64
2023/10/14 09:02:40;;;;;;;9.88;6.75;;;;;;;;;;10146737;28;20052;-63
2023/10/14 09:07:32;;;;;;;14.52;6.22;;;;;;;;;;10147370;28;20064;-63
2023/10/14 09:12:24;;;;;;;13.88;6.15;;;;;;;;;;10143902;28;20048;-62
2023/10/14 09:17:16;;;;;;;18.25;6.85;;;;;;;;;;10146933;28;20052;-63
2023/10/14 09:22:18;;;;;;;12.13;6.40;;;;;;;;;;10146602;28;20698;-63
2023/10/14 09:27:11;;;;;;;15.20;8.38;;;;;;;;;;10145858;28;20075;-62
2023/10/14 09:32:05;;;;;;;13.88;7.93;;;;;;;;;;10146501;28;20043;-64
2023/10/14 09:36:58;;;;;;;11.65;6.70;;;;;;;;;;10145824;28;20127;-64
2023/10/14 09:41:53;;;;;;;12.35;7.47;;;;;;;;;;10141243;28;20044;-64
2023/10/14 09:46:46;;;;;;;10.82;5.20;;;;;;;;;;10146436;28;20052;-62
2023/10/14 09:51:39;;;;;;;15.23;5.13;;;;;;;;;;10144268;28;20782;-61
2023/10/14 09:56:32;;;;;;;10.32;4.85;;;;;;;;;;10126014;28;20036;-63
2023/10/14 10:01:34;;;;;;;13.30;5.63;;;;;;;;;;10144023;28;20080;-63
2023/10/14 10:06:47;;;;;;;9.48;5.57;;;;;;;;;;10144250;28;20094;-63
2023/10/14 10:11:39;;;;;;;8.48;5.05;;;;;;;;;;10143598;28;20043;-62
2023/10/14 10:16:32;;;;;;;11.23;5.80;;;;;;;;;;10134702;28;20144;-63
2023/10/14 10:21:32;;;;;;;6.40;4.35;;;;;;;;;;10143723;28;20062;-61
2023/10/14 10:26:24;;;;;;;12.88;6.60;;;;;;;;;;10144795;28;20131;-62
2023/10/14 10:31:21;;;;;;;14.73;5.03;;;;;;;;;;10137208;28;20078;-63
2023/10/14 10:36:21;;;;;;;15.52;5.93;;;;;;;;;;10058086;28;20057;-63
2023/10/14 10:41:19;;;;;;;10.48;5.00;;;;;;;;;;10061212;28;20029;-62
2023/10/14 10:46:44;;;;;;;11.60;5.07;;;;;;;;;;10062124;28;20052;-63
2023/10/14 10:51:50;;;;;;;10.80;5.85;;;;;;;;;;10064111;28;20041;-64
2023/10/14 10:56:43;;;;;;;13.13;5.90;;;;;;;;;;10064608;28;20045;-63
2023/10/14 11:01:56;;;;;;;10.43;6.05;;;;;;;;;;10062090;28;20490;-63
2023/10/14 11:06:51;;;;;;;8.25;3.95;;;;;;;;;;10061076;28;20060;-64
2023/10/14 11:11:44;;;;;;;12.70;5.63;;;;;;;;;;10062818;28;20430;-64
2023/10/14 11:16:36;;;;;;;9.60;4.68;;;;;;;;;;10058357;28;20428;-64
2023/10/14 11:21:28;;;;;;;8.73;4.70;;;;;;;;;;10059164;28;20171;-64
2023/10/14 11:26:20;;;;;;;12.27;6.10;;;;;;;;;;10058694;28;20055;-62
2023/10/14 11:31:12;;;;;;;10.95;4.60;;;;;;;;;;10059181;28;20045;-64
2023/10/14 11:36:05;;;;;;;14.45;5.85;;;;;;;;;;10060209;28;20037;-65
2023/10/14 11:41:02;;;;;;;11.70;6.38;;;;;;;;;;10059091;28;20045;-64
2023/10/14 11:45:57;;;;;;;13.80;5.15;;;;;;;;;;10057810;28;20444;-64
2023/10/14 11:50:53;;;;;;;13.77;6.93;;;;;;;;;;10058086;28;20081;-63
2023/10/14 11:55:45;;;;;;;12.02;5.53;;;;;;;;;;10055905;28;20415;-62
2023/10/14 12:00:37;;;;;;;11.05;5.30;;;;;;;;;;10057893;28;20061;-63
2023/10/14 12:05:39;;;;;;;13.13;5.13;;;;;;;;;;10057864;28;20136;-61
2023/10/14 12:10:31;;;;;;;15.13;5.50;;;;;;;;;;10055648;28;20041;-63
2023/10/14 12:15:23;;;;;;;20.63;6.50;;;;;;;;;;10056920;28;20072;-64
2023/10/14 12:20:15;;;;;;;19.42;5.65;;;;;;;;;;10057681;28;20436;-65
2023/10/14 12:25:07;;;;;;;10.40;7.07;;;;;;;;;;10055284;28;20095;-63
2023/10/14 12:30:00;;;;;;;17.73;6.15;;;;;;;;;;10055112;28;20441;-64
2023/10/14 12:34:52;;;;;;;13.77;6.45;;;;;;;;;;10052466;28;20053;-66
2023/10/14 12:45:12;;;;;;;18.45;6.38;;;;;;;;;;10046877;28;20119;-66
2023/10/14 12:50:05;;;;;;;20.98;6.55;;;;;;;;;;10052701;28;20053;-66
2023/10/14 12:55:08;;;;;;;11.63;6.03;;;;;;;;;;10052131;28;20049;-66
2023/10/14 13:00:00;;;;;;;12.80;6.95;;;;;;;;;;10052834;28;20133;-65
2023/10/14 13:04:52;;;;;;;9.70;6.35;;;;;;;;;;10051948;28;20414;-66
2023/10/14 13:09:44;;;;;;;19.27;7.53;;;;;;;;;;10049971;28;20084;-65
2023/10/14 13:14:37;;;;;;;14.68;6.55;;;;;;;;;;10053104;28;20184;-65
2023/10/14 13:19:35;;;;;;;13.63;6.15;;;;;;;;;;10059812;28;20045;-65
2023/10/14 13:24:27;;;;;;;11.25;6.07;;;;;;;;;;10058701;28;20049;-66
2023/10/14 13:29:19;;;;;;;12.07;5.78;;;;;;;;;;10059733;28;20136;-65
2023/10/14 13:34:11;;;;;;;9.02;5.25;;;;;;;;;;10057677;28;20114;-66
2023/10/14 13:39:07;;;;;;;7.70;4.97;;;;;;;;;;10057404;28;20447;-67
2023/10/14 13:44:01;;;;;;;14.45;6.18;;;;;;;;;;10056899;28;20080;-66
2023/10/14 13:48:56;;;;;;;15.27;5.35;;;;;;;;;;10057606;28;20053;-66
2023/10/14 13:53:49;;;;;;;14.70;6.38;;;;;;;;;;10055431;28;20052;-65
2023/10/14 13:58:41;;;;;;;7.50;4.68;;;;;;;;;;10058077;28;20670;-66
2023/10/14 14:03:33;;;;;;;15.98;5.47;;;;;;;;;;10056244;28;20048;-65
2023/10/14 14:08:25;;;;;;;14.43;5.40;;;;;;;;;;10056434;28;20252;-64
2023/10/14 14:13:19;;;;;;;15.40;5.28;;;;;;;;;;10057849;28;20041;-65
2023/10/14 14:18:11;;;;;;;9.20;6.05;;;;;;;;;;10059625;28;20041;-66
2023/10/14 14:23:06;;;;;;;15.90;6.78;;;;;;;;;;10054055;28;20370;-66
2023/10/14 14:28:03;;;;;;;11.63;5.90;;;;;;;;;;10060094;28;20338;-64
2023/10/14 14:32:55;;;;;;;11.60;6.23;;;;;;;;;;10056468;28;20042;-65
2023/10/14 14:37:47;;;;;;;16.45;5.22;;;;;;;;;;10057026;28;20312;-64
2023/10/14 14:42:40;;;;;;;18.52;8.15;;;;;;;;;;10054974;28;20041;-64
2023/10/14 14:47:32;;;;;;;14.50;5.68;;;;;;;;;;10054292;28;20045;-66
2023/10/14 14:52:26;;;;;;;10.63;5.30;;;;;;;;;;10058162;28;20102;-64
2023/10/14 14:57:18;;;;;;;17.38;5.43;;;;;;;;;;10054731;28;20042;-66
2023/10/14 15:02:10;;;;;;;33.70;7.53;;;;;;;;;;10055016;28;20779;-66
2023/10/14 15:07:02;;;;;;;29.80;6.00;;;;;;;;;;10055624;28;20054;-67
2023/10/14 15:11:55;;;;;;;20.75;5.43;;;;;;;;;;10055273;28;20030;-63
2023/10/14 15:16:47;;;;;;;10.80;5.32;;;;;;;;;;10053508;28;20813;-64
2023/10/14 15:21:39;;;;;;;14.77;7.80;;;;;;;;;;10052199;28;20120;-63
2023/10/14 15:26:31;;;;;;;11.48;5.78;;;;;;;;;;10052965;28;20056;-63
2023/10/14 15:31:24;;;;;;;29.27;7.43;;;;;;;;;;10054119;28;20046;-65
2023/10/14 15:36:16;;;;;;;14.70;6.35;;;;;;;;;;10051226;28;20379;-64
2023/10/14 15:41:08;;;;;;;10.18;6.75;;;;;;;;;;10054492;28;20045;-65
2023/10/14 15:46:01;;;;;;;15.85;6.57;;;;;;;;;;10050896;28;20033;-65
2023/10/14 15:50:53;;;;;;;8.75;5.28;;;;;;;;;;10053327;28;20053;-65
2023/10/14 15:55:46;;;;;;;10.20;4.95;;;;;;;;;;10053194;28;20073;-65
2023/10/14 16:00:47;;;;;;;26.08;6.88;;;;;;;;;;10053995;28;20042;-62
2023/10/14 16:05:44;;;;;;;14.90;7.38;;;;;;;;;;10052501;28;20045;-63
2023/10/14 16:10:37;;;;;;;14.68;5.40;;;;;;;;;;10051377;28;20184;-64
2023/10/14 16:15:30;;;;;;;12.98;5.65;;;;;;;;;;10054228;28;20046;-65
2023/10/14 16:20:24;;;;;;;8.23;4.95;;;;;;;;;;10053333;28;20033;-65
2023/10/14 16:25:17;;;;;;;9.68;5.50;;;;;;;;;;10051882;28;20382;-67
2023/10/14 16:30:14;;;;;;;16.75;7.90;;;;;;;;;;10053939;28;20048;-63
2023/10/14 16:35:06;;;;;;;21.73;8.93;;;;;;;;;;10051049;28;20069;-65
2023/10/14 16:39:58;;;;;;;17.92;6.20;;;;;;;;;;10050753;28;20448;-73
2023/10/14 16:44:52;;;;;;;7.72;4.38;;;;;;;;;;10051652;28;20034;-73
2023/10/14 16:49:44;;;;;;;9.70;5.47;;;;;;;;;;10056727;28;20045;-74
2023/10/14 16:54:39;;;;;;;9.52;4.80;;;;;;;;;;10060040;28;20041;-73
2023/10/14 16:59:31;;;;;;;7.93;6.00;;;;;;;;;;10059085;28;20044;-74
2023/10/14 17:04:24;;;;;;;9.60;6.45;;;;;;;;;;10056436;28;20099;-74
2023/10/14 17:09:16;;;;;;;8.55;4.85;;;;;;;;;;10058115;28;20045;-73
2023/10/14 17:14:08;;;;;;;13.23;5.10;;;;;;;;;;10059968;28;20029;-72
2023/10/14 17:19:00;;;;;;;10.85;5.30;;;;;;;;;;10058794;28;20045;-73
2023/10/14 17:23:53;;;;;;;15.35;7.05;;;;;;;;;;10056374;28;20396;-74
2023/10/14 17:28:45;;;;;;;8.77;5.75;;;;;;;;;;10060817;28;20049;-75
2023/10/14 17:33:37;;;;;;;9.80;5.03;;;;;;;;;;10055199;28;20176;-74
2023/10/14 17:38:29;;;;;;;11.25;5.65;;;;;;;;;;10056565;28;20041;-73
2023/10/14 17:43:21;;;;;;;11.18;5.50;;;;;;;;;;10057434;28;20072;-75
2023/10/14 17:48:13;;;;;;;10.70;5.25;;;;;;;;;;10057713;28;20046;-74
2023/10/14 17:53:17;;;;;;;12.05;6.50;;;;;;;;;;10056375;28;20477;-74
2023/10/14 17:58:10;;;;;;;12.27;5.40;;;;;;;;;;10063903;28;20400;-73
2023/10/14 18:03:07;;;;;;;17.92;5.65;;;;;;;;;;10063207;28;20111;-74
2023/10/14 18:08:00;;;;;;;7.57;4.90;;;;;;;;;;10062570;28;20060;-74
2023/10/14 18:12:51;;;;;;;12.77;7.72;;;;;;;;;;10062660;28;20053;-74
2023/10/14 18:17:45;;;;;;;11.73;6.28;;;;;;;;;;10061298;28;20041;-72
2023/10/14 18:22:39;;;;;;;9.75;4.85;;;;;;;;;;10059961;28;20046;-74
2023/10/14 18:27:30;;;;;;;12.95;5.10;;;;;;;;;;10063273;28;20046;-74
2023/10/14 18:32:22;;;;;;;8.23;5.03;;;;;;;;;;10061647;28;20053;-73
2023/10/14 18:37:14;;;;;;;10.95;5.43;;;;;;;;;;10059871;28;20068;-73
2023/10/14 18:42:08;;;;;;;6.90;5.15;;;;;;;;;;10061799;28;20464;-74
2023/10/14 18:47:00;;;;;;;7.57;4.53;;;;;;;;;;10062191;28;20657;-74
2023/10/14 18:51:53;;;;;;;9.05;5.80;;;;;;;;;;10061847;28;20179;-74
2023/10/14 18:56:51;;;;;;;7.50;5.05;;;;;;;;;;10061568;28;20442;-74
2023/10/14 19:01:43;;;;;;;10.07;6.43;;;;;;;;;;10061087;28;20049;-73
2023/10/14 19:06:38;;;;;;;10.45;4.80;;;;;;;;;;10061885;28;20514;-75
2023/10/14 19:11:31;;;;;;;9.90;5.40;;;;;;;;;;10060999;28;20450;-73
2023/10/14 19:16:23;;;;;;;7.50;5.20;;;;;;;;;;10059241;28;20486;-74
2023/10/14 19:21:15;;;;;;;9.85;5.85;;;;;;;;;;10060599;28;20059;-75
2023/10/14 19:26:09;;;;;;;8.07;5.40;;;;;;;;;;10061570;28;20050;-74
2023/10/14 19:31:02;;;;;;;7.78;5.80;;;;;;;;;;10060302;28;20541;-74
2023/10/14 19:35:56;;;;;;;9.70;5.75;;;;;;;;;;10058937;28;20567;-74
2023/10/14 19:40:58;;;;;;;11.90;5.50;;;;;;;;;;10059429;28;20456;-74
2023/10/14 19:45:50;;;;;;;10.82;4.90;;;;;;;;;;10059365;28;20053;-72
2023/10/14 19:50:45;;;;;;;15.32;5.18;;;;;;;;;;10059495;28;20053;-74
2023/10/14 19:55:40;;;;;;;11.27;6.45;;;;;;;;;;10058857;28;20045;-74
2023/10/14 20:00:35;;;;;;;11.38;5.78;;;;;;;;;;10059528;28;20048;-73
2023/10/14 20:05:28;;;;;;;8.90;6.15;;;;;;;;;;10059565;28;20046;-74
2023/10/14 20:10:24;;;;;;;16.80;5.95;;;;;;;;;;10058032;28;20057;-74
2023/10/14 20:15:19;;;;;;;8.27;5.30;;;;;;;;;;10058862;28;20050;-74
2023/10/14 20:20:16;;;;;;;18.48;6.18;;;;;;;;;;10058431;28;20052;-74
2023/10/14 20:25:08;;;;;;;9.48;6.05;;;;;;;;;;10058022;28;20045;-74
2023/10/14 20:30:00;;;;;;;7.75;4.57;;;;;;;;;;10057898;28;20053;-74
2023/10/14 20:34:52;;;;;;;8.40;6.60;;;;;;;;;;10058948;28;20065;-73
2023/10/14 20:39:47;;;;;;;11.45;5.80;;;;;;;;;;10059285;28;20077;-72
2023/10/14 20:44:39;;;;;;;9.70;6.57;;;;;;;;;;10079494;28;20051;-73
2023/10/14 20:49:31;;;;;;;8.10;4.95;;;;;;;;;;10064131;28;20041;-73
2023/10/14 20:54:23;;;;;;;8.07;5.05;;;;;;;;;;10058956;28;20484;-75
2023/10/14 20:59:16;;;;;;;8.85;5.75;;;;;;;;;;10058388;28;20492;-74
2023/10/14 21:04:08;;;;;;;14.77;5.22;;;;;;;;;;10056070;28;20049;-73
2023/10/14 21:08:59;;;;;;;9.40;5.28;;;;;;;;;;10055647;28;20073;-73
2023/10/14 21:13:52;;;;;;;8.43;5.18;;;;;;;;;;10055168;28;20069;-73
2023/10/14 21:18:53;;;;;;;13.02;5.25;;;;;;;;;;10056134;28;20179;-75
2023/10/14 21:23:46;;;;;;;9.40;5.80;;;;;;;;;;10056487;28;20041;-75
2023/10/14 21:28:38;;;;;;;12.63;6.88;;;;;;;;;;10056444;28;20383;-73
2023/10/14 21:33:31;;;;;;;11.60;6.20;;;;;;;;;;10056760;28;20135;-75
2023/10/14 21:38:25;;;;;;;7.43;5.32;;;;;;;;;;10062681;28;20100;-74
2023/10/14 21:43:19;;;;;;;7.15;5.47;;;;;;;;;;10060700;28;20042;-74
2023/10/14 21:48:11;;;;;;;11.13;6.05;;;;;;;;;;10062023;28;20041;-73
2023/10/14 21:53:05;;;;;;;10.48;5.05;;;;;;;;;;10053741;28;20384;-75
2023/10/14 21:57:58;;;;;;;9.32;4.97;;;;;;;;;;10062123;28;20042;-74
2023/10/14 22:02:53;;;;;;;10.57;5.68;;;;;;;;;;10061425;28;20108;-74
2023/10/14 22:07:46;;;;;;;12.77;4.50;;;;;;;;;;10062919;28;20042;-75
2023/10/14 22:12:39;;;;;;;11.25;5.60;;;;;;;;;;10057358;28;20065;-73
2023/10/14 22:17:31;;;;;;;14.15;5.63;;;;;;;;;;10057327;28;20046;-75
2023/10/14 22:22:23;;;;;;;8.27;4.93;;;;;;;;;;10059349;28;20049;-75
2023/10/14 22:27:15;;;;;;;7.82;5.78;;;;;;;;;;10058690;28;20042;-73
2023/10/14 22:32:09;;;;;;;8.63;5.65;;;;;;;;;;10058680;28;20056;-73
2023/10/14 22:37:01;;;;;;;10.70;5.32;;;;;;;;;;10057826;28;20045;-73
2023/10/14 22:41:53;;;;;;;11.20;4.97;;;;;;;;;;10062330;28;20139;-74
2023/10/14 22:46:46;;;;;;;9.95;5.15;;;;;;;;;;10061863;28;20140;-74
2023/10/14 22:51:38;;;;;;;8.45;5.10;;;;;;;;;;10061741;28;20486;-73
2023/10/14 22:56:31;;;;;;;12.68;4.95;;;;;;;;;;10061435;28;20491;-75
2023/10/14 23:01:24;;;;;;;9.98;5.60;;;;;;;;;;10061071;28;20099;-74
2023/10/14 23:06:19;;;;;;;10.00;5.43;;;;;;;;;;10062299;28;20076;-75
2023/10/14 23:11:11;;;;;;;9.52;5.70;;;;;;;;;;10061598;28;20049;-75
2023/10/14 23:16:03;;;;;;;10.02;5.10;;;;;;;;;;10059747;28;20115;-73
2023/10/14 23:20:57;;;;;;;10.18;5.00;;;;;;;;;;10061311;28;20124;-75
2023/10/14 23:25:50;;;;;;;10.25;5.03;;;;;;;;;;10060518;28;20045;-75
2023/10/14 23:30:44;;;;;;;7.53;5.00;;;;;;;;;;10054340;28;20052;-75
2023/10/14 23:35:36;;;;;;;13.18;6.00;;;;;;;;;;10053511;28;20073;-75
2023/10/14 23:40:29;;;;;;;13.82;6.00;;;;;;;;;;10053543;28;20119;-74
2023/10/14 23:45:24;;;;;;;7.93;7.13;;;;;;;;;;10051266;28;20067;-73
2023/10/14 23:50:18;;;;;;;9.35;5.45;;;;;;;;;;10051696;28;20172;-73
2023/10/14 23:55:11;;;;;;;8.68;5.53;;;;;;;;;;10053101;28;20145;-75
